Time;durP1;ratioP1;P1;durP2;ratioP2;P2;SDS_P1;SDS_P2;PMS_P1;PMS_P2;Temp;Humidity;BMP_temperature;BMP_pressure;BME280_temperature;BME280_humidity;BME280_pressure;Samples;Min_cycle;Max_cycle;Signal;HPM_P1;HPM_P2
2021/03/16 00:00:33;;;;;;;;;;;;;;;;;;4995583;28;19910;-72
2021/03/16 00:02:59;;;;;;;;;;;;;;;;;;4995354;28;19914;-71
2021/03/16 00:05:25;;;;;;;;;;;;;;;;;;4995806;28;19914;-70
2021/03/16 00:07:51;;;;;;;;;;;;;;;;;;4994943;28;19949;-70
2021/03/16 00:10:17;;;;;;;;;;;;;;;;;;4995457;28;19960;-70
2021/03/16 00:12:43;;;;;;;;;;;;;;;;;;5010374;28;20354;-71
2021/03/16 00:15:09;;;;;;;;;;;;;;;;;;4995363;28;19960;-70
2021/03/16 00:17:34;;;;;;;;;;;;;;;;;;4994854;28;19914;-70
2021/03/16 00:20:00;;;;;;;;;;;;;;;;;;4995141;28;20366;-71
2021/03/16 00:22:26;;;;;;;;;;;;;;;;;;4995634;28;19965;-71
2021/03/16 00:24:52;;;;;;;;;;;;;;;;;;4995007;28;19917;-70
2021/03/16 00:27:18;;;;;;;;;;;;;;;;;;4995315;28;20450;-70
2021/03/16 00:29:44;;;;;;;;;;;;;;;;;;4995256;28;19910;-70
2021/03/16 00:32:10;;;;;;;;;;;;;;;;;;4994721;28;19921;-70
2021/03/16 00:34:42;;;;;;;;;;;;;;;;;;4995226;28;19917;-70
2021/03/16 00:37:08;;;;;;;;;;;;;;;;;;4994908;28;19910;-70
2021/03/16 00:39:34;;;;;;;;;;;;;;;;;;5010206;28;19910;-70
2021/03/16 00:42:00;;;;;;;;;;;;;;;;;;4994627;28;19917;-70
2021/03/16 00:44:26;;;;;;;;;;;;;;;;;;5010077;28;19910;-70
2021/03/16 00:46:52;;;;;;;;;;;;;;;;;;5010030;28;19910;-71
2021/03/16 00:49:18;;;;;;;;;;;;;;;;;;4994615;28;20286;-70
2021/03/16 00:51:43;;;;;;;;;;;;;;;;;;4994871;28;19917;-71
2021/03/16 00:54:09;;;;;;;;;;;;;;;;;;4994504;28;19910;-71
2021/03/16 00:56:35;;;;;;;;;;;;;;;;;;5009829;28;19957;-70
2021/03/16 00:59:01;;;;;;;;;;;;;;;;;;5009586;28;19910;-70
2021/03/16 01:01:27;;;;;;;;;;;;;;;;;;4994102;28;20297;-70
2021/03/16 01:03:53;;;;;;;;;;;;;;;;;;4994270;28;20305;-72
2021/03/16 01:06:19;;;;;;;;;;;;;;;;;;4994264;28;19922;-70
2021/03/16 01:08:45;;;;;;;;;;;;;;;;;;4994456;28;20285;-71
2021/03/16 01:11:11;;;;;;;;;;;;;;;;;;5009398;28;19979;-71
2021/03/16 01:13:37;;;;;;;;;;;;;;;;;;4993849;28;19920;-71
2021/03/16 01:16:03;;;;;;;;;;;;;;;;;;4993798;28;19910;-70
2021/03/16 01:18:29;;;;;;;;;;;;;;;;;;4994227;28;19914;-71
2021/03/16 01:20:55;;;;;;;;;;;;;;;;;;4994502;28;19910;-70
2021/03/16 01:23:21;;;;;;;;;;;;;;;;;;4994139;28;20277;-70
2021/03/16 01:25:47;;;;;;;;;;;;;;;;;;4994589;28;19910;-70
2021/03/16 01:28:13;;;;;;;;;;;;;;;;;;5009493;28;19916;-71
2021/03/16 01:30:39;;;;;;;;;;;;;;;;;;4993104;28;19945;-71
2021/03/16 01:33:05;;;;;;;;;;;;;;;;;;4994088;28;19914;-71
2021/03/16 01:35:31;;;;;;;;;;;10.50;40.70;;;;;;5009206;28;19909;-71
2021/03/16 01:37:57;;;;;;;;;;;10.10;37.40;;;;;;4994128;28;20293;-71
2021/03/16 01:40:28;;;;;;;;;;;10.00;36.90;;;;;;5008901;28;19925;-71
2021/03/16 01:43:05;;;;;;;;;;;10.00;36.30;;;;;;4994234;28;19928;-68
2021/03/16 01:45:30;;;;;;;;;;;10.00;36.20;;;;;;5009011;28;19929;-71
2021/03/16 01:47:56;;;;;;;;;;;10.10;35.60;;;;;;4993684;28;20325;-70
2021/03/16 01:50:22;;;;;;;;;;;10.00;36.80;;;;;;4993656;28;20024;-71
2021/03/16 01:52:53;;;;;;;;;;;10.00;36.30;;;;;;4994004;28;20333;-71
2021/03/16 01:55:19;;;;;;;;;;;10.00;35.50;;;;;;4994057;28;19930;-71
2021/03/16 01:57:46;;;;;;;;;;;9.90;35.90;;;;;;4993773;28;19929;-71
2021/03/16 02:00:12;;;;;;;;;;;9.90;36.10;;;;;;4987738;28;20382;-71
2021/03/16 02:02:38;;;;;;;;;;;10.00;36.40;;;;;;4991537;28;19928;-71
2021/03/16 02:05:05;;;;;;;;;;;9.90;37.10;;;;;;4993558;28;19925;-70
2021/03/16 02:07:31;;;;;;;;;;;9.90;37.00;;;;;;4993615;28;19922;-71
2021/03/16 02:09:57;;;;;;;;;;;;;;;;;;4993887;28;19932;-70
2021/03/16 02:12:28;;;;;;;;;;;9.70;37.40;;;;;;4993538;28;20001;-71
2021/03/16 02:14:56;;;;;;;;;;;9.70;37.20;;;;;;4993583;28;20013;-71
2021/03/16 02:17:26;;;;;;;;;;;9.70;37.40;;;;;;4993839;28;19929;-70
2021/03/16 02:20:02;;;;;;;;;;;9.60;37.90;;;;;;4992040;28;19922;-71
2021/03/16 02:22:29;;;;;;;;;;;9.60;38.30;;;;;;4988350;28;19922;-71
2021/03/16 02:24:55;;;;;;;;;;;;;;;;;;4993043;28;19922;-71
2021/03/16 02:27:23;;;;;;;;;;;9.60;38.30;;;;;;4996043;28;19916;-71
2021/03/16 02:29:52;;;;;;;;;;;9.40;37.90;;;;;;4997211;28;19947;-70
2021/03/16 02:32:19;;;;;;;;;;;9.40;37.70;;;;;;4997251;28;20441;-70
2021/03/16 02:34:47;;;;;;;;;;;9.50;37.30;;;;;;4997374;28;20012;-72
2021/03/16 02:37:13;;;;;;;;;;;9.40;37.80;;;;;;5011550;28;20352;-71
2021/03/16 02:39:40;;;;;;;;;;;9.50;37.60;;;;;;4997164;28;20314;-72
2021/03/16 02:42:07;;;;;;;;;;;9.50;38.00;;;;;;4997116;28;20016;-71
2021/03/16 02:44:34;;;;;;;;;;;9.50;37.90;;;;;;5005959;28;19929;-71
2021/03/16 02:47:01;;;;;;;;;;;9.50;38.00;;;;;;4997210;28;19966;-71
2021/03/16 02:49:28;;;;;;;;;;;9.60;37.90;;;;;;4996998;28;20385;-70
2021/03/16 02:51:53;;;;;;;;;;;9.50;38.10;;;;;;4997023;28;19937;-71
2021/03/16 02:54:19;;;;;;;;;;;9.40;38.70;;;;;;4995963;28;19930;-70
2021/03/16 02:56:46;;;;;;;;;;;9.50;38.60;;;;;;4996699;28;19922;-70
2021/03/16 02:59:12;;;;;;;;;;;9.40;38.40;;;;;;4996708;28;19928;-71
2021/03/16 03:01:39;;;;;;;;;;;9.40;38.90;;;;;;4996846;28;19922;-71
2021/03/16 03:04:07;;;;;;;;;;;9.40;38.40;;;;;;4996365;28;19925;-71
2021/03/16 03:06:33;;;;;;;;;;;9.50;37.60;;;;;;5011723;28;19926;-71
2021/03/16 03:09:01;;;;;;;;;;;9.40;38.10;;;;;;5011857;28;19921;-71
2021/03/16 03:11:27;;;;;;;;;;;9.50;37.50;;;;;;4992054;28;19954;-71
2021/03/16 03:13:53;;;;;;;;;;;9.50;37.90;;;;;;4996665;28;19980;-71
2021/03/16 03:16:19;;;;;;;;;;;9.40;37.80;;;;;;4996339;28;19926;-71
2021/03/16 03:18:44;;;;;;;;;;;9.40;37.50;;;;;;4996613;28;19921;-71
2021/03/16 03:21:14;;;;;;;;;;;9.50;37.10;;;;;;4996526;28;19972;-71
2021/03/16 03:23:43;;;;;;;;;;;9.50;37.10;;;;;;5011297;28;20368;-71
2021/03/16 03:26:13;;;;;;;;;;;9.50;38.10;;;;;;4996500;28;19926;-71
2021/03/16 03:28:39;;;;;;;;;;;9.40;37.40;;;;;;4996039;28;19932;-71
2021/03/16 03:31:05;;;;;;;;;;;;;;;;;;4996405;28;20016;-75
2021/03/16 03:33:31;;;;;;;;;;;;;;;;;;4995919;28;19968;-74
2021/03/16 03:35:57;;;;;;;;;;;;;;;;;;4996276;28;20362;-74
2021/03/16 03:38:23;;;;;;;;;;;;;;;;;;5010656;28;19910;-74
2021/03/16 03:40:48;;;;;;;;;;;;;;;;;;4996036;28;19910;-74
2021/03/16 03:43:14;;;;;;;;;;;;;;;;;;4996141;28;19968;-75
2021/03/16 03:45:40;;;;;;;;;;;;;;;;;;4995876;28;19910;-75
2021/03/16 03:48:06;;;;;;;;;;;;;;;;;;5011443;28;20025;-68
2021/03/16 03:50:33;;;;;;;;;;;9.40;37.00;;;;;;4995763;28;19910;-68
2021/03/16 03:52:59;;;;;;;;;;;9.30;36.80;;;;;;4995767;28;19930;-68
2021/03/16 03:55:26;;;;;;;;;;;9.40;37.20;;;;;;4995843;28;20356;-69
2021/03/16 03:57:53;;;;;;;;;;;9.40;36.50;;;;;;5010720;28;20003;-69
2021/03/16 04:00:19;;;;;;;;;;;9.50;36.50;;;;;;4995772;28;19922;-68
2021/03/16 04:02:45;;;;;;;;;;;9.40;36.40;;;;;;4995424;28;19972;-69
2021/03/16 04:05:11;;;;;;;;;;;9.40;36.00;;;;;;5010453;28;19969;-68
2021/03/16 04:07:38;;;;;;;;;;;9.40;37.10;;;;;;5000292;28;20445;-68
2021/03/16 04:10:05;;;;;;;;;;;9.40;36.80;;;;;;4990217;28;19926;-68
2021/03/16 04:12:31;;;;;;;;;;;9.40;36.60;;;;;;4995197;28;19973;-68
2021/03/16 04:14:57;;;;;;;;;;;9.40;36.30;;;;;;4995443;28;20284;-69
2021/03/16 04:17:22;;;;;;;;;;;9.40;35.90;;;;;;4995563;28;20004;-68
2021/03/16 04:19:51;;;;;;;;;;;9.40;36.10;;;;;;5010152;28;19922;-68
2021/03/16 04:22:17;;;;;;;;;;;9.50;35.50;;;;;;4995445;28;19928;-68
2021/03/16 04:24:44;;;;;;;;;;;9.50;35.80;;;;;;4995267;28;19921;-68
2021/03/16 04:27:10;;;;;;;;;;;9.50;35.20;;;;;;4995178;28;19926;-68
2021/03/16 04:29:36;;;;;;;;;;;9.50;35.20;;;;;;4995218;28;19921;-68
2021/03/16 04:32:01;;;;;;;;;;;9.60;35.00;;;;;;5010002;28;19926;-68
2021/03/16 04:34:28;;;;;;;;;;;9.60;34.70;;;;;;4999126;28;19969;-68
2021/03/16 04:36:54;;;;;;;;;;;9.60;35.00;;;;;;4993159;28;20353;-69
2021/03/16 04:39:19;;;;;;;;;;;9.60;35.20;;;;;;4993621;28;19965;-68
2021/03/16 04:41:46;;;;;;;;;;;9.50;34.10;;;;;;4995015;28;20381;-68
2021/03/16 04:44:12;;;;;;;;;;;9.50;35.30;;;;;;5009903;28;19926;-68
2021/03/16 04:46:37;;;;;;;;;;;9.50;35.10;;;;;;4994887;28;19928;-68
2021/03/16 04:49:03;;;;;;;;;;;9.50;35.30;;;;;;4994355;28;20029;-68
2021/03/16 04:51:29;;;;;;;;;;;9.50;34.90;;;;;;4994334;28;20028;-68
2021/03/16 04:53:55;;;;;;;;;;;9.60;35.30;;;;;;5009768;28;19925;-68
2021/03/16 04:56:20;;;;;;;;;;;9.50;35.10;;;;;;4994781;28;19922;-68
2021/03/16 04:58:47;;;;;;;;;;;9.50;35.40;;;;;;4994827;28;19933;-68
2021/03/16 05:01:13;;;;;;;;;;;9.50;34.70;;;;;;5009301;28;19933;-68
2021/03/16 05:03:38;;;;;;;;;;;9.50;34.50;;;;;;5009361;28;19926;-68
2021/03/16 05:06:04;;;;;;;;;;;9.50;35.10;;;;;;4994582;28;20012;-68
2021/03/16 05:08:30;;;;;;;;;;;9.40;34.80;;;;;;4994542;28;19922;-68
2021/03/16 05:10:55;;;;;;;;;;;9.40;35.60;;;;;;4994223;28;19929;-68
2021/03/16 05:13:21;;;;;;;;;;;9.40;34.60;;;;;;4994215;28;20013;-68
2021/03/16 05:15:48;;;;;;;;;;;9.40;34.30;;;;;;4994411;28;19923;-68
2021/03/16 05:18:13;;;;;;;;;;;9.40;34.60;;;;;;4994230;28;19956;-68
2021/03/16 05:20:39;;;;;;;;;;;9.40;34.40;;;;;;4994418;28;20025;-70
2021/03/16 05:23:05;;;;;;;;;;;9.40;34.60;;;;;;4994485;28;19926;-68
2021/03/16 05:25:31;;;;;;;;;;;9.40;34.40;;;;;;4994449;28;19922;-68
2021/03/16 05:27:57;;;;;;;;;;;9.30;34.30;;;;;;4994278;28;19929;-68
2021/03/16 05:30:23;;;;;;;;;;;9.30;34.70;;;;;;4993791;28;19921;-67
2021/03/16 05:32:53;;;;;;;;;;;9.30;35.00;;;;;;4994429;28;19926;-69
2021/03/16 05:35:19;;;;;;;;;;;9.40;34.50;;;;;;5015112;28;20000;-68
2021/03/16 05:37:45;;;;;;;;;;;9.40;34.30;;;;;;4994806;28;19968;-68
2021/03/16 05:40:11;;;;;;;;;;;9.40;34.40;;;;;;5009086;28;19922;-68
2021/03/16 05:42:37;;;;;;;;;;;9.40;34.50;;;;;;4994062;28;19968;-68
2021/03/16 05:45:03;;;;;;;;;;;9.40;34.80;;;;;;4994146;28;19925;-68
2021/03/16 05:47:29;;;;;;;;;;;9.40;34.50;;;;;;5009183;28;19921;-68
2021/03/16 05:49:56;;;;;;;;;;;9.40;34.50;;;;;;4994200;28;19922;-67
2021/03/16 05:52:22;;;;;;;;;;;9.50;34.10;;;;;;4993711;28;19926;-68
2021/03/16 05:54:51;;;;;;;;;;;9.40;34.60;;;;;;4994033;28;19922;-69
2021/03/16 05:57:17;;;;;;;;;;;9.40;33.60;;;;;;5009059;28;19925;-68
2021/03/16 05:59:43;;;;;;;;;;;9.30;35.40;;;;;;4993983;28;19973;-68
2021/03/16 06:02:09;;;;;;;;;;;9.40;33.20;;;;;;4996605;28;19922;-68
2021/03/16 06:04:34;;;;;;;;;;;9.50;32.10;;;;;;4997373;28;20021;-68
2021/03/16 06:07:01;;;;;;;;;;;9.60;33.40;;;;;;4997859;28;20376;-68
2021/03/16 06:09:27;;;;;;;;;;;9.70;33.50;;;;;;4997722;28;19929;-68
2021/03/16 06:11:52;;;;;;;;;;;9.60;33.50;;;;;;4997359;28;19930;-68
2021/03/16 06:14:28;;;;;;;;;;;9.70;33.70;;;;;;4994579;28;19953;-69
2021/03/16 06:16:53;;;;;;;;;;;9.60;34.10;;;;;;4997009;28;20401;-69
2021/03/16 06:19:24;;;;;;;;;;;9.60;33.80;;;;;;4997129;28;19925;-68
2021/03/16 06:21:56;;;;;;;;;;;9.60;33.40;;;;;;4997290;28;19921;-68
2021/03/16 06:24:23;;;;;;;;;;;9.60;34.20;;;;;;4997569;28;20013;-68
2021/03/16 06:26:49;;;;;;;;;;;9.60;34.30;;;;;;4994334;28;19988;-68
2021/03/16 06:29:14;;;;;;;;;;;9.60;34.00;;;;;;4996789;28;19922;-68
2021/03/16 06:31:40;;;;;;;;;;;9.60;33.70;;;;;;4996485;28;19976;-69
2021/03/16 06:34:05;;;;;;;;;;;9.70;33.70;;;;;;4995891;28;19976;-68
2021/03/16 06:36:32;;;;;;;;;;;9.60;34.20;;;;;;5012079;28;20369;-67
2021/03/16 06:38:57;;;;;;;;;;;9.60;34.60;;;;;;4996735;28;19925;-68
2021/03/16 06:41:25;;;;;;;;;;;9.70;34.60;;;;;;4997148;28;20286;-68
2021/03/16 06:43:54;;;;;;;;;;;9.80;34.60;;;;;;5013324;28;19925;-68
2021/03/16 06:46:27;;;;;;;;;;;9.70;33.80;;;;;;5000271;28;19980;-68
2021/03/16 06:48:53;;;;;;;;;;;9.70;34.70;;;;;;4995272;28;19928;-68
2021/03/16 06:51:23;;;;;;;;;;;9.70;34.60;;;;;;4996635;28;20364;-68
2021/03/16 06:53:49;;;;;;;;;;;9.70;34.10;;;;;;5011972;28;20136;-68
2021/03/16 06:56:15;;;;;;;;;;;9.70;34.10;;;;;;4996747;28;19926;-68
2021/03/16 06:58:41;;;;;;;;;;;9.80;34.00;;;;;;5012327;28;20025;-67
2021/03/16 07:01:08;;;;;;;;;;;9.80;33.30;;;;;;4996761;28;19926;-68
2021/03/16 07:03:34;;;;;;;;;;;9.90;33.60;;;;;;5011824;28;20358;-67
2021/03/16 07:06:09;;;;;;;;;;;10.00;34.10;;;;;;4996704;28;19962;-68
2021/03/16 07:08:35;;;;;;;;;;;9.90;35.00;;;;;;4996810;28;20385;-68
2021/03/16 07:11:02;;;;;;;;;;;10.00;33.20;;;;;;4996651;28;19926;-68
2021/03/16 07:13:28;;;;;;;;;;;10.00;33.70;;;;;;5010557;28;19926;-68
2021/03/16 07:15:55;;;;;;;;;;;10.20;32.70;;;;;;4996836;28;19926;-68
2021/03/16 07:18:21;;;;;;;;;;;10.20;34.00;;;;;;4996286;28;19926;-68
2021/03/16 07:20:47;;;;;;;;;;;10.30;33.90;;;;;;5011667;28;20037;-68
2021/03/16 07:23:14;;;;;;;;;;;10.40;32.60;;;;;;4996542;28;19926;-68
2021/03/16 07:25:40;;;;;;;;;;;10.40;33.30;;;;;;4996502;28;19922;-67
2021/03/16 07:28:06;;;;;;;;;;;10.50;32.70;;;;;;4996459;28;19926;-68
2021/03/16 07:30:32;;;;;;;;;;;;;;;;;;4995674;28;19970;-68
2021/03/16 07:33:00;;;;;;;;;;;10.60;33.30;;;;;;5011326;28;20012;-68
2021/03/16 07:35:26;;;;;;;;;;;10.80;32.40;;;;;;4996108;28;19929;-68
2021/03/16 07:37:52;;;;;;;;;;;10.90;33.30;;;;;;4996367;28;19922;-68
2021/03/16 07:40:18;;;;;;;;;;;10.90;32.50;;;;;;5011100;28;20301;-67
2021/03/16 07:42:46;;;;;;;;;;;11.00;33.70;;;;;;4996359;28;19922;-69
2021/03/16 07:45:22;;;;;;;;;;;11.10;32.30;;;;;;4995889;28;20280;-71
2021/03/16 07:47:48;;;;;;;;;;;;;;;;;;5011251;28;19985;-68
2021/03/16 07:50:14;;;;;;;;;;;;;;;;;;5011160;28;19917;-68
2021/03/16 07:52:39;;;;;;;;;;;;;;;;;;5002441;28;19922;-67
2021/03/16 07:55:05;;;;;;;;;;;;;;;;;;4991887;28;19913;-68
2021/03/16 07:57:34;;;;;;;;;;;11.60;30.90;;;;;;5006800;28;19922;-71
2021/03/16 08:00:01;;;;;;;;;;;11.60;31.20;;;;;;4991778;28;20407;-69
2021/03/16 08:02:27;;;;;;;;;;;;;;;;;;4992212;28;20348;-69
2021/03/16 08:04:53;;;;;;;;;;;;;;;;;;4993617;28;20382;-68
2021/03/16 08:07:19;;;;;;;;;;;;;;;;;;4993702;28;19916;-69
2021/03/16 08:09:45;;;;;;;;;;;;;;;;;;4991909;28;19910;-68
2021/03/16 08:12:20;;;;;;;;;;;11.70;31.10;;;;;;5008478;28;19925;-70
2021/03/16 08:14:46;;;;;;;;;;;;;;;;;;4991289;28;19977;-69
2021/03/16 08:17:24;;;;;;;;;;;11.90;30.50;;;;;;5002352;28;19976;-68
2021/03/16 08:19:50;;;;;;;;;;;12.10;29.90;;;;;;4992891;28;20341;-68
2021/03/16 08:22:19;;;;;;;;;;;12.10;28.90;;;;;;4992202;28;19961;-70
2021/03/16 08:24:44;;;;;;;;;;;;;;;;;;4992503;28;19922;-66
2021/03/16 08:27:10;;;;;;;;;;;;;;;;;;5007935;28;20387;-68
2021/03/16 08:29:36;;;;;;;;;;;;;;;;;;4992032;28;20370;-69
2021/03/16 08:32:02;;;;;;;;;;;12.30;29.10;;;;;;4991685;28;19916;-67
2021/03/16 08:34:31;;;;;;;;;;;12.30;28.80;;;;;;4990912;28;20397;-68
2021/03/16 08:36:56;;;;;;;;;;;12.30;28.70;;;;;;4989752;28;19926;-67
2021/03/16 08:39:24;;;;;;;;;;;12.30;29.10;;;;;;5001535;28;19922;-68
2021/03/16 08:41:54;;;;;;;;;;;12.40;29.10;;;;;;4991778;28;20404;-70
2021/03/16 08:44:19;;;;;;;;;;;12.40;28.80;;;;;;4991041;28;19972;-67
2021/03/16 08:46:45;;;;;;;;;;;12.50;29.70;;;;;;4991088;28;19922;-69
2021/03/16 08:49:14;;;;;;;;;;;12.60;28.70;;;;;;4991612;28;19983;-69
2021/03/16 08:51:41;;;;;;;;;;;12.70;28.10;;;;;;4991835;28;19932;-69
2021/03/16 08:54:07;;;;;;;;;;;12.70;28.50;;;;;;5001519;28;19933;-67
2021/03/16 08:56:32;;;;;;;;;;;12.90;39.60;;;;;;5007525;28;19929;-68
2021/03/16 08:59:03;;;;;;;;;;;12.80;27.80;;;;;;4999345;28;20310;-69
2021/03/16 09:01:28;;;;;;;;;;;12.90;27.10;;;;;;4992158;28;19921;-69
2021/03/16 09:03:54;;;;;;;;;;;12.90;27.40;;;;;;4991696;28;19933;-69
2021/03/16 09:06:20;;;;;;;;;;;13.00;27.30;;;;;;5000402;28;19969;-68
2021/03/16 09:08:50;;;;;;;;;;;13.00;27.30;;;;;;5000907;28;20397;-68
2021/03/16 09:11:29;;;;;;;;;;;13.10;27.20;;;;;;4990315;28;19988;-68
2021/03/16 09:14:05;;;;;;;;;;;13.20;27.20;;;;;;4979405;28;20381;-68
2021/03/16 09:16:31;;;;;;;;;;;13.20;28.60;;;;;;5006067;28;20270;-68
2021/03/16 09:18:57;;;;;;;;;;;13.30;27.60;;;;;;5000729;28;19941;-68
2021/03/16 09:21:23;;;;;;;;;;;13.30;28.20;;;;;;4990090;28;20440;-69
2021/03/16 09:23:49;;;;;;;;;;;13.20;26.70;;;;;;4992366;28;19922;-68
2021/03/16 09:26:24;;;;;;;;;;;13.30;26.60;;;;;;5001376;28;19934;-70
2021/03/16 09:28:50;;;;;;;;;;;13.40;26.50;;;;;;4990278;28;19930;-68
2021/03/16 09:31:18;;;;;;;;;;;13.40;27.00;;;;;;4989718;28;19928;-69
2021/03/16 09:33:44;;;;;;;;;;;13.40;26.80;;;;;;4990954;28;19929;-69
2021/03/16 09:36:09;;;;;;;;;;;13.40;26.60;;;;;;4998739;28;19925;-69
2021/03/16 09:38:35;;;;;;;;;;;13.50;27.20;;;;;;4992180;28;20357;-68
2021/03/16 09:41:06;;;;;;;;;;;13.60;26.40;;;;;;4991586;28;19953;-68
2021/03/16 09:43:35;;;;;;;;;;;13.60;25.90;;;;;;4990385;28;19930;-68
2021/03/16 09:46:03;;;;;;;;;;;13.60;26.00;;;;;;5002071;28;19932;-70
2021/03/16 09:48:29;;;;;;;;;;;13.60;25.90;;;;;;4992201;28;19922;-68
2021/03/16 09:50:57;;;;;;;;;;;13.60;25.60;;;;;;5001708;28;19929;-68
2021/03/16 09:53:23;;;;;;;;;;;13.70;25.90;;;;;;4990666;28;20025;-68
2021/03/16 09:55:55;;;;;;;;;;;13.70;25.50;;;;;;4990289;28;20469;-68
2021/03/16 09:58:21;;;;;;;;;;;13.70;26.00;;;;;;4999675;28;19922;-68
2021/03/16 10:00:48;;;;;;;;;;;13.80;26.90;;;;;;4991778;28;19922;-67
2021/03/16 10:03:14;;;;;;;;;;;13.90;26.20;;;;;;5000160;28;19968;-69
2021/03/16 10:05:40;;;;;;;;;;;;;;;;;;4971410;28;19930;-68
2021/03/16 10:08:06;;;;;;;;;;;;;;;;;;4971924;28;19932;-68
2021/03/16 10:10:33;;;;;;;;;;;;;;;;;;4972626;28;19997;-68
2021/03/16 10:12:59;;;;;;;;;;;;;;;;;;4977933;28;19923;-69
2021/03/16 10:15:25;;;;;;;;;;;;;;;;;;4978492;28;19941;-69
2021/03/16 10:17:51;;;;;;;;;;;;;;;;;;4971781;28;19911;-68
2021/03/16 10:20:17;;;;;;;;;;;;;;;;;;4978609;28;19936;-68
2021/03/16 10:22:43;;;;;;;;;;;;;;;;;;4971164;28;20338;-71
2021/03/16 10:25:09;;;;;;;;;;;;;;;;;;4971650;28;20012;-70
2021/03/16 10:27:35;;;;;;;;;;;;;;;;;;4970863;28;20074;-69
2021/03/16 10:30:01;;;;;;;;;;;;;;;;;;4979057;28;19914;-67
2021/03/16 10:32:27;;;;;;;;;;;;;;;;;;4978916;28;19965;-68
2021/03/16 10:34:52;;;;;;;;;;;;;;;;;;4972662;28;20029;-69
2021/03/16 10:37:18;;;;;;;;;;;;;;;;;;4971958;28;19929;-68
2021/03/16 10:39:45;;;;;;;;;;;14.00;26.50;;;;;;4971887;28;19911;-68
2021/03/16 10:42:12;;;;;;;;;;;14.30;25.20;;;;;;4970629;28;19932;-69
2021/03/16 10:44:38;;;;;;;;;;;;;;;;;;4979062;28;19930;-70
2021/03/16 10:47:04;;;;;;;;;;;;;;;;;;4971580;28;20257;-69
2021/03/16 10:49:29;;;;;;;;;;;;;;;;;;4975086;28;20326;-69
2021/03/16 10:51:55;;;;;;;;;;;;;;;;;;4974173;28;19918;-68
2021/03/16 10:54:21;;;;;;;;;;;;;;;;;;4974133;28;19918;-69
2021/03/16 10:56:47;;;;;;;;;;;;;;;;;;4975160;28;19910;-69
2021/03/16 10:59:13;;;;;;;;;;;;;;;;;;4974853;28;19919;-69
2021/03/16 11:01:39;;;;;;;;;;;;;;;;;;4975614;28;20358;-69
2021/03/16 11:04:05;;;;;;;;;;;;;;;;;;4981651;28;19957;-68
2021/03/16 11:06:31;;;;;;;;;;;;;;;;;;5009143;28;19917;-68
2021/03/16 11:08:57;;;;;;;;;;;;;;;;;;4994472;28;19910;-68
2021/03/16 11:11:23;;;;;;;;;;;;;;;;;;4993253;28;19971;-69
2021/03/16 11:13:49;;;;;;;;;;;;;;;;;;4993329;28;19922;-69
2021/03/16 11:16:15;;;;;;;;;;;;;;;;;;4994927;28;19916;-68
2021/03/16 11:18:41;;;;;;;;;;;;;;;;;;4993540;28;19920;-68
2021/03/16 11:21:07;;;;;;;;;;;;;;;;;;4994656;28;19925;-68
2021/03/16 11:23:32;;;;;;;;;;;;;;;;;;4994423;28;20044;-68
2021/03/16 11:25:58;;;;;;;;;;;;;;;;;;4992916;28;19945;-69
2021/03/16 11:28:24;;;;;;;;;;;;;;;;;;4993343;28;19956;-68
2021/03/16 11:30:50;;;;;;;;;;;;;;;;;;4992754;28;19914;-67
2021/03/16 11:33:17;;;;;;;;;;;14.40;24.80;;;;;;5000930;28;20425;-68
2021/03/16 11:35:43;;;;;;;;;;;;;;;;;;4991080;28;21174;-69
2021/03/16 11:38:09;;;;;;;;;;;;;;;;;;4994298;28;20017;-69
2021/03/16 11:40:34;;;;;;;;;;;15.20;25.10;;;;;;4992957;28;20424;-70
2021/03/16 11:43:00;;;;;;;;;;;15.50;25.30;;;;;;4994274;28;19956;-69
2021/03/16 11:45:26;;;;;;;;;;;15.40;24.60;;;;;;4991958;28;19922;-69
2021/03/16 11:47:51;;;;;;;;;;;15.40;24.70;;;;;;4993170;28;19976;-68
2021/03/16 11:50:18;;;;;;;;;;;15.40;24.70;;;;;;4993001;28;19925;-71
2021/03/16 11:52:44;;;;;;;;;;;15.40;24.40;;;;;;5007534;28;20428;-69
2021/03/16 11:55:10;;;;;;;;;;;15.50;24.40;;;;;;4991351;28;19922;-69
2021/03/16 11:57:36;;;;;;;;;;;15.50;25.20;;;;;;5004911;28;19921;-69
2021/03/16 12:00:02;;;;;;;;;;;15.60;25.30;;;;;;5004026;28;19972;-68
2021/03/16 12:02:28;;;;;;;;;;;15.70;25.00;;;;;;4991400;28;19989;-68
2021/03/16 12:04:54;;;;;;;;;;;;;;;;;;4990159;28;19933;-70
2021/03/16 12:07:19;;;;;;;;;;;;;;;;;;4999898;28;19917;-69
2021/03/16 12:09:45;;;;;;;;;;;;;;;;;;4998825;28;19910;-69
2021/03/16 12:12:11;;;;;;;;;;;;;;;;;;4992164;28;20000;-69
2021/03/16 12:14:38;;;;;;;;;;;;;;;;;;4992592;28;19932;-69
2021/03/16 12:17:04;;;;;;;;;;;;;;;;;;4992738;28;19996;-70
2021/03/16 12:19:30;;;;;;;;;;;15.80;23.80;;;;;;4998585;28;20288;-69
2021/03/16 12:21:56;;;;;;;;;;;;;;;;;;4991905;28;19926;-68
2021/03/16 12:24:22;;;;;;;;;;;;;;;;;;4992604;28;19961;-68
2021/03/16 12:26:52;;;;;;;;;;;;;;;;;;4996292;28;20288;-70
2021/03/16 12:29:18;;;;;;;;;;;;;;;;;;4990929;28;19924;-70
2021/03/16 12:31:43;;;;;;;;;;;16.30;23.90;;;;;;4989857;28;19917;-69
2021/03/16 12:34:09;;;;;;;;;;;16.30;25.00;;;;;;4989531;28;19933;-70
2021/03/16 12:36:36;;;;;;;;;;;16.40;23.70;;;;;;4990011;28;20298;-69
2021/03/16 12:39:02;;;;;;;;;;;;;;;;;;4991224;28;20017;-68
2021/03/16 12:41:28;;;;;;;;;;;;;;;;;;4992228;28;19997;-70
2021/03/16 12:43:53;;;;;;;;;;;;;;;;;;4997649;28;19914;-68
2021/03/16 12:46:19;;;;;;;;;;;;;;;;;;4990375;28;19909;-68
2021/03/16 12:48:45;;;;;;;;;;;16.40;24.00;;;;;;4991530;28;20378;-69
2021/03/16 12:51:11;;;;;;;;;;;;;;;;;;4988961;28;19968;-68
2021/03/16 12:53:37;;;;;;;;;;;;;;;;;;4988106;28;20457;-68
2021/03/16 12:56:03;;;;;;;;;;;;;;;;;;4990884;28;19917;-70
2021/03/16 12:58:29;;;;;;;;;;;;;;;;;;4989654;28;19989;-69
2021/03/16 13:00:55;;;;;;;;;;;;;;;;;;4991771;28;19920;-69
2021/03/16 13:03:21;;;;;;;;;;;;;;;;;;4991309;28;20385;-69
2021/03/16 13:05:47;;;;;;;;;;;;;;;;;;4998626;28;19914;-68
2021/03/16 13:08:13;;;;;;;;;;;;;;;;;;4990373;28;19917;-68
2021/03/16 13:10:39;;;;;;;;;;;;;;;;;;4998081;28;19972;-69
2021/03/16 13:15:49;;;;;;;;;;;;;;;;;;4990881;28;19952;-69
2021/03/16 13:18:15;;;;;;;;;;;;;;;;;;4990712;28;19914;-69
2021/03/16 13:20:41;;;;;;;;;;;;;;;;;;4991365;28;20336;-69
2021/03/16 13:23:07;;;;;;;;;;;;;;;;;;5001327;28;19944;-68
2021/03/16 13:25:33;;;;;;;;;;;;;;;;;;4990699;28;21290;-69
2021/03/16 13:28:02;;;;;;;;;;;;;;;;;;4990007;28;20380;-68
2021/03/16 13:30:27;;;;;;;;;;;;;;;;;;4991172;28;20273;-68
2021/03/16 13:32:53;;;;;;;;;;;;;;;;;;5001799;28;19933;-69
2021/03/16 13:35:19;;;;;;;;;;;;;;;;;;4990263;28;19918;-68
2021/03/16 13:37:45;;;;;;;;;;;;;;;;;;4990699;28;19962;-68
2021/03/16 13:40:12;;;;;;;;;;;;;;;;;;4990848;28;19910;-69
2021/03/16 13:42:38;;;;;;;;;;;;;;;;;;4990475;28;19918;-69
2021/03/16 13:45:04;;;;;;;;;;;;;;;;;;4990371;28;19916;-69
2021/03/16 13:47:31;;;;;;;;;;;16.60;24.60;;;;;;4990142;28;20163;-69
2021/03/16 13:49:57;;;;;;;;;;;;;;;;;;5000672;28;20044;-68
2021/03/16 13:52:23;;;;;;;;;;;;;;;;;;4997470;28;19951;-70
2021/03/16 13:54:49;;;;;;;;;;;;;;;;;;4990707;28;19978;-69
2021/03/16 13:57:16;;;;;;;;;;;;;;;;;;4991587;28;19916;-68
2021/03/16 13:59:42;;;;;;;;;;;;;;;;;;4992342;28;19916;-68
2021/03/16 14:02:08;;;;;;;;;;;;;;;;;;5006720;28;20012;-69
2021/03/16 14:04:33;;;;;;;;;;;;;;;;;;4991302;28;20015;-69
2021/03/16 14:06:59;;;;;;;;;;;;;;;;;;4990557;28;20412;-69
2021/03/16 14:09:25;;;;;;;;;;;;;;;;;;4990807;28;20365;-68
2021/03/16 14:11:52;;;;;;;;;;;17.20;23.10;;;;;;4991389;28;19941;-69
2021/03/16 14:14:18;;;;;;;;;;;17.60;23.60;;;;;;4990583;28;19976;-70
2021/03/16 14:16:44;;;;;;;;;;;17.70;24.70;;;;;;4990188;28;20020;-69
2021/03/16 14:19:10;;;;;;;;;;;17.80;24.30;;;;;;4991301;28;20020;-69
2021/03/16 14:21:35;;;;;;;;;;;17.80;22.40;;;;;;4990037;28;19928;-69
2021/03/16 14:24:01;;;;;;;;;;;17.70;22.40;;;;;;4994474;28;19938;-69
2021/03/16 14:26:27;;;;;;;;;;;17.50;23.00;;;;;;5004416;28;19992;-69
2021/03/16 14:28:53;;;;;;;;;;;17.50;22.70;;;;;;4995391;28;20313;-69
2021/03/16 14:31:19;;;;;;;;;;;17.40;23.60;;;;;;5001962;28;20017;-68
2021/03/16 14:33:45;;;;;;;;;;;17.40;23.50;;;;;;4994236;28;19932;-68
2021/03/16 14:36:11;;;;;;;;;;;17.40;22.90;;;;;;4994925;28;19921;-69
2021/03/16 14:38:37;;;;;;;;;;;17.40;23.10;;;;;;4995340;28;19921;-68
2021/03/16 14:41:02;;;;;;;;;;;17.30;22.70;;;;;;4994937;28;20052;-70
2021/03/16 14:43:28;;;;;;;;;;;17.30;22.90;;;;;;4994882;28;19922;-69
2021/03/16 14:45:55;;;;;;;;;;;17.20;22.70;;;;;;5002039;28;20382;-69
2021/03/16 14:48:21;;;;;;;;;;;17.20;23.50;;;;;;5005485;28;20301;-68
2021/03/16 14:50:47;;;;;;;;;;;17.10;23.30;;;;;;4995082;28;19929;-68
2021/03/16 14:53:13;;;;;;;;;;;17.20;23.80;;;;;;5002961;28;19961;-69
2021/03/16 14:55:38;;;;;;;;;;;17.20;23.70;;;;;;4993690;28;20345;-70
2021/03/16 14:58:05;;;;;;;;;;;17.20;23.90;;;;;;4994727;28;19929;-69
2021/03/16 15:00:30;;;;;;;;;;;17.20;23.90;;;;;;4993815;28;20440;-69
2021/03/16 15:02:57;;;;;;;;;;;17.30;23.60;;;;;;4993752;28;19922;-69
2021/03/16 15:05:23;;;;;;;;;;;17.30;22.50;;;;;;4994499;28;20020;-69
2021/03/16 15:07:48;;;;;;;;;;;17.30;23.30;;;;;;5004043;28;20001;-70
2021/03/16 15:10:14;;;;;;;;;;;17.30;23.80;;;;;;4994456;28;19928;-68